x

West Dixon Entrance (46205) Wave Buoy

11:00am - Mon 20th Feb 2017 All times are PST. -8 hours from GMT.

  • Sig Wave height 5.6ft
  • Peak Period 12s
  • Wind
    13mph, 18mph gusts
  • Sea Temp 45°f
  • Air Temp 41°f
  • Sea Pressure 1003.5mb
  • West Dixon Entrance
  • West Dixon Entrance

More Historic Weather Station data

Upgrade to MSW Pro to gain access to the past 30 days of data for over 8000 Wavebouys and Weather Stations around the globe.

Join Pro

Comparision Forecast

View Surf forecast
   
Mon 02/20 11:00am 5.5ft 12s 13 18 mph 1003.5mb 45f 41f
10:00am 6ft 12s 16 20 mph 1002.8mb 45f 41f
9:00am 5ft 13s 18 22 mph 1002.3mb 45f 41f
8:00am 5.5ft 12s 16 18 mph 1001.8mb 45f 40f
7:00am 5.5ft 13s 16 18 mph 1001.3mb 45f 40f
6:00am 5.5ft 14s 16 20 mph 1001mb 45f 40f
5:00am 6.5ft 13s 16 20 mph 1000.8mb 45f 41f
4:00am 6ft 13s 13 18 mph 1000.8mb 45f 41f
3:00am 6ft 12s 11 16 mph 1000.7mb 45f 41f
2:00am 6ft 14s 11 16 mph 1000.7mb 45f 41f
1:00am 5.5ft 13s 9 13 mph 1000.4mb 45f 41f
12:00am 6.5ft 14s 9 13 mph 1000.2mb 45f 41f
Sun 02/19 11:00pm 6ft 14s 11 16 mph 999.8mb 45f 41f
10:00pm 6.5ft 14s 11 13 mph 999.8mb 45f 41f
9:00pm 7ft 14s 13 16 mph 999.5mb 45f 41f
8:00pm 6ft 15s 11 16 mph 999.3mb 45f 41f
7:00pm 6ft 14s 13 18 mph 999.1mb 45f 40f
6:00pm 6ft 14s 13 18 mph 999.1mb 45f 40f
5:00pm 6ft 14s 13 18 mph 998.8mb 45f 41f
4:00pm 6ft 15s 13 18 mph 998.6mb 45f 41f
3:00pm 6ft 15s 11 16 mph 998.5mb 45f 41f
2:00pm 6ft 16s 9 13 mph 998.5mb 45f 40f
1:00pm 6.5ft 16s 11 13 mph 998.3mb 45f 40f
12:00pm 6ft 16s 11 20 mph 998.6mb 44f 40f
11:00am 6ft 17s 11 13 mph 998.5mb 44f 41f
10:00am 5ft 17s 11 13 mph 998.2mb 44f 40f
9:00am 5.5ft 17s 11 13 mph 998mb 44f 40f
8:00am 5ft 18s 13 18 mph 997.6mb 44f 40f
7:00am 5.5ft 11s 16 18 mph 997.4mb 44f 40f
6:00am 5ft 12s 16 18 mph 997.4mb 44f 40f
5:00am 5.5ft 11s 13 18 mph 997.6mb 44f 40f
4:00am 5.5ft 10s 16 18 mph 997.6mb 44f 40f
3:00am 5.5ft 9s 16 18 mph 997.9mb 44f 40f
2:00am 5.5ft 11s 13 18 mph 997.8mb 44f 40f
1:00am 6ft 10s 13 18 mph 997.9mb 44f 40f
12:00am 6ft 10s 13 18 mph 998mb 44f 41f
Sat 02/18 11:00pm 6ft 10s 13 18 mph 998mb 44f 41f
10:00pm 6ft 10s 18 20 mph 997.6mb 44f 41f
9:00pm 6ft 10s 16 20 mph 997.7mb 44f 41f
8:00pm 6ft 10s 18 20 mph 997.9mb 44f 40f
7:00pm 6ft 10s 18 22 mph 998.1mb 44f 40f
6:00pm 6ft 10s 16 20 mph 998.3mb 44f 40f
5:00pm 6ft 10s 16 18 mph 998.6mb 44f 41f
4:00pm 6ft 10s 13 18 mph 998.8mb 45f 42f
3:00pm 6.5ft 10s 13 16 mph 999.3mb 44f 41f
2:00pm 6ft 9s 9 13 mph 1000.1mb 44f 41f
1:00pm 7ft 10s 9 11 mph 1000.9mb 44f 39f
12:00pm 6ft 10s 11 13 mph 1001.7mb 44f 39f
11:00am 6.5ft 10s 7 9 mph 1002mb 44f 41f
10:00am 6.5ft 10s 7 9 mph 1002.3mb 44f 40f
9:00am 7ft 11s 7 9 mph 1002.6mb 44f 41f
8:00am 6ft 10s 4 9 mph 1003.1mb 44f 41f
7:00am 7ft 10s 2 4 mph 1003.6mb 44f 40f
6:00am 7ft 11s 2 7 mph 1004.2mb 44f 41f
5:00am 7ft 10s 4 7 mph 1004.8mb 44f 41f
4:00am 8ft 11s  -  4 mph 1005.4mb 44f 41f
3:00am 7.5ft 10s 2 4 mph 1006.1mb 44f 41f
2:00am 8ft 11s 4 7 mph 1006.5mb 44f 41f
1:00am 8ft 10s 2 4 mph 1006.9mb 44f 41f
12:00am 7.5ft 11s 4
mph
1007mb 45f 41f
Fri 02/17 11:00pm 8ft 10s 4 7 mph 1007.3mb 45f 41f
10:00pm 8ft 11s 4 7 mph 1007.7mb 45f 41f
9:00pm 8ft 11s 4 7 mph 1007.9mb 45f 42f
8:00pm 7ft 11s 7 9 mph 1008mb 45f 42f
7:00pm 8ft 10s 4 7 mph 1008.2mb 45f 42f
6:00pm 9ft 11s 2 4 mph 1008.3mb 45f 41f
5:00pm 8ft 12s 4 9 mph 1008.4mb 45f 41f
4:00pm 8.5ft 12s 7 9 mph 1008.6mb 45f 43f
3:00pm 9ft 11s 7 9 mph 1008.8mb 45f 43f
2:00pm 8ft 11s 9 11 mph 1009mb 45f 43f
1:00pm 8.5ft 12s 9 13 mph 1009.2mb 45f 41f
12:00pm 9ft 11s 7 9 mph 1009.3mb 45f 43f
11:00am 9.5ft 11s 7 9 mph 1009mb 45f 43f
10:00am 9.5ft 11s 7 9 mph 1008.7mb 44f 42f
9:00am 10ft 12s 7 11 mph 1008.4mb 44f 42f
8:00am 9ft 12s 9 11 mph 1008mb 44f 42f
7:00am 9ft 12s 9 13 mph 1007.6mb 44f 42f
6:00am 9ft 11s 11 16 mph 1007.4mb 44f 42f
5:00am 9ft 12s 11 13 mph 1007.1mb 45f 42f
4:00am 9ft 12s 13 16 mph 1006.6mb 45f 42f
3:00am 8.5ft 12s 13 16 mph 1006.3mb 45f 42f
2:00am 9ft 13s 11 16 mph 1005.6mb 45f 41f
1:00am 8.5ft 12s 13 18 mph 1005.1mb 45f 41f
12:00am 9ft 12s 13 18 mph 1004.3mb 45f 42f
Thu 02/16 11:00pm 8.5ft 12s 13 18 mph 1003.8mb 45f 40f
10:00pm 9ft 14s 16 20 mph 1002.9mb 45f 41f
9:00pm 9ft 10s 18 20 mph 1001.9mb 45f 42f